createdAt,value
2022-07-29T00:00:13.723Z,68.73
2022-07-29T00:05:26.613Z,69.02
2022-07-29T00:10:35.003Z,69.07
2022-07-29T00:15:44.016Z,69.07
2022-07-29T00:20:51.721Z,69.45
2022-07-29T00:26:00.636Z,69.25
2022-07-29T00:36:44.655Z,69.81
2022-07-29T00:41:50.889Z,69.64
2022-07-29T00:47:07.333Z,69.66
2022-07-29T00:57:52.997Z,69.72
2022-07-29T01:05:48.131Z,70.38
2022-07-29T01:11:01.857Z,70.41
2022-07-29T01:16:16.307Z,70.40
2022-07-29T01:21:57.839Z,70.18
2022-07-29T01:27:31.848Z,70.38
2022-07-29T01:32:42.613Z,70.58
2022-07-29T01:38:10.281Z,70.47
2022-07-29T01:43:43.954Z,70.65
2022-07-29T01:49:06.191Z,71.07
2022-07-29T01:54:47.421Z,71.07
2022-07-29T01:59:55.191Z,70.88
2022-07-29T02:05:17.387Z,71.20
2022-07-29T02:10:26.694Z,71.19
2022-07-29T02:15:40.139Z,71.19
2022-07-29T02:20:55.964Z,70.95
2022-07-29T02:26:18.830Z,71.04
2022-07-29T02:31:50.584Z,71.38
2022-07-29T02:36:58.667Z,71.20
2022-07-29T02:42:11.714Z,71.63
2022-07-29T02:47:45.058Z,72.09
2022-07-29T02:53:27.980Z,72.23
2022-07-29T03:07:27.998Z,71.93
2022-07-29T03:12:31.320Z,72.17
2022-07-29T03:18:06.887Z,72.40
2022-07-29T03:23:12.149Z,72.81
2022-07-29T03:28:14.172Z,72.76
2022-07-29T03:33:18.246Z,72.58
2022-07-29T03:38:21.667Z,72.54
2022-07-29T03:43:27.019Z,72.56
2022-07-29T03:48:33.034Z,72.60
2022-07-29T03:53:36.559Z,72.52
2022-07-29T03:58:39.984Z,72.39
2022-07-29T04:03:42.044Z,72.33
2022-07-29T04:08:44.174Z,72.43
2022-07-29T04:13:46.183Z,72.47
2022-07-29T04:18:48.385Z,72.41
2022-07-29T04:23:53.689Z,72.56
2022-07-29T04:28:56.038Z,72.41
2022-07-29T04:33:58.643Z,72.22
2022-07-29T04:39:02.037Z,72.43
2022-07-29T04:44:07.217Z,72.32
2022-07-29T04:49:09.713Z,72.14
2022-07-29T04:54:11.798Z,72.08
2022-07-29T04:59:13.803Z,72.16
2022-07-29T05:04:16.132Z,72.34
2022-07-29T05:09:18.537Z,72.46
2022-07-29T05:14:20.752Z,72.84
2022-07-29T05:19:22.918Z,72.93
2022-07-29T05:24:24.927Z,73.11
2022-07-29T05:29:43.122Z,72.90
2022-07-29T05:34:50.387Z,72.32
2022-07-29T05:39:56.595Z,72.63
2022-07-29T05:44:59.457Z,72.53
2022-07-29T05:50:01.570Z,72.33
2022-07-29T05:55:05.424Z,72.04
2022-07-29T06:00:08.465Z,71.80
2022-07-29T06:05:17.252Z,71.83
2022-07-29T06:10:20.171Z,71.66
2022-07-29T06:15:25.975Z,71.35
2022-07-29T06:20:32.274Z,71.55
2022-07-29T06:25:36.550Z,71.45
2022-07-29T06:30:39.219Z,71.20
2022-07-29T06:35:43.191Z,71.15
2022-07-29T06:41:10.715Z,71.11
2022-07-29T06:46:15.746Z,70.96
2022-07-29T06:51:24.157Z,70.67
2022-07-29T06:56:26.305Z,70.65
2022-07-29T07:01:28.403Z,70.23
2022-07-29T07:06:30.682Z,70.46
2022-07-29T07:11:33.029Z,69.72
2022-07-29T07:16:38.890Z,69.62
2022-07-29T07:21:41.518Z,68.89
2022-07-29T07:26:43.605Z,68.34
2022-07-29T07:31:49.419Z,67.84
2022-07-29T07:36:51.551Z,67.85
2022-07-29T07:41:53.840Z,67.69
2022-07-29T07:46:59.919Z,66.28
2022-07-29T07:52:17.900Z,66.26
2022-07-29T07:57:20.121Z,65.49
2022-07-29T08:02:25.600Z,64.64
2022-07-29T08:07:27.631Z,64.63
2022-07-29T08:12:29.747Z,64.69
2022-07-29T08:17:37.008Z,63.82
2022-07-29T08:22:39.044Z,63.20
2022-07-29T08:27:43.825Z,63.25
2022-07-29T08:32:54.827Z,63.57
2022-07-29T08:37:58.035Z,63.11
2022-07-29T08:43:08.770Z,61.66
2022-07-29T08:48:10.750Z,61.42
2022-07-29T08:53:15.345Z,62.62
2022-07-29T08:58:22.900Z,63.55
2022-07-29T09:03:32.141Z,63.14
2022-07-29T09:08:34.594Z,63.08
2022-07-29T09:13:36.920Z,62.72
2022-07-29T09:18:45.364Z,62.15
2022-07-29T09:24:08.879Z,60.57
2022-07-29T09:29:18.117Z,62.09
2022-07-29T09:34:27.995Z,62.17
2022-07-29T09:39:41.201Z,60.40
2022-07-29T09:44:46.533Z,60.23
2022-07-29T09:50:07.332Z,59.61
2022-07-29T09:55:13.588Z,58.70
2022-07-29T10:00:21.584Z,59.81
2022-07-29T10:05:26.069Z,59.23
2022-07-29T10:10:34.875Z,57.79
2022-07-29T10:15:40.189Z,57.90
2022-07-29T10:20:42.728Z,58.77
2022-07-29T10:25:52.505Z,59.27
2022-07-29T10:31:05.327Z,58.68
2022-07-29T10:36:40.232Z,57.85
2022-07-29T10:54:01.302Z,58.51
2022-07-29T10:59:36.357Z,58.24
2022-07-29T11:04:44.527Z,56.56
2022-07-29T11:10:12.848Z,57.73
2022-07-29T11:15:22.410Z,59.11
2022-07-29T11:20:40.735Z,58.41
2022-07-29T11:25:50.616Z,59.36
2022-07-29T11:30:56.341Z,60.84
2022-07-29T11:36:16.872Z,62.98
2022-07-29T11:41:19.147Z,63.18
2022-07-29T11:46:54.743Z,64.20
2022-07-29T11:52:02.861Z,63.86
2022-07-29T11:57:08.548Z,64.44
2022-07-29T12:02:37.231Z,64.70
2022-07-29T12:07:35.599Z,65.34
2022-07-29T12:12:39.796Z,66.30
2022-07-29T12:17:42.324Z,66.59
2022-07-29T12:22:45.379Z,66.86
2022-07-29T12:27:48.594Z,66.57
2022-07-29T12:32:51.436Z,65.96
2022-07-29T12:38:00.236Z,65.70
2022-07-29T12:43:12.760Z,65.37
2022-07-29T12:48:15.870Z,65.47
2022-07-29T12:53:17.960Z,65.30
2022-07-29T12:58:31.182Z,64.90
2022-07-29T13:03:56.886Z,65.27
2022-07-29T13:09:07.692Z,65.20
2022-07-29T13:14:13.315Z,64.07
2022-07-29T13:19:15.343Z,64.55
2022-07-29T13:24:19.910Z,63.68
2022-07-29T13:29:31.748Z,63.82
2022-07-29T13:34:34.058Z,63.84
2022-07-29T13:39:36.236Z,63.08
2022-07-29T13:44:38.392Z,63.26
2022-07-29T13:49:40.555Z,62.29
2022-07-29T13:54:45.921Z,61.96
2022-07-29T13:59:53.451Z,61.06
2022-07-29T14:04:56.446Z,60.86
2022-07-29T14:09:58.743Z,60.15
2022-07-29T14:15:01.185Z,60.63
2022-07-29T14:20:04.007Z,60.14
2022-07-29T14:25:14.722Z,59.89
2022-07-29T14:30:17.503Z,58.78
2022-07-29T14:35:20.382Z,59.55
2022-07-29T14:40:22.564Z,59.90
2022-07-29T14:45:25.389Z,59.85
2022-07-29T14:50:31.207Z,58.81
2022-07-29T14:55:34.307Z,58.96
2022-07-29T15:00:37.992Z,58.97
2022-07-29T15:05:40.220Z,58.86
2022-07-29T15:10:42.390Z,58.07
2022-07-29T15:15:45.564Z,57.74
2022-07-29T15:20:47.818Z,57.44
2022-07-29T15:25:54.916Z,56.40
2022-07-29T15:30:57.225Z,57.48
2022-07-29T15:35:59.341Z,57.20
2022-07-29T15:41:01.684Z,57.32
2022-07-29T15:46:22.193Z,57.43
2022-07-29T15:51:24.356Z,57.86
2022-07-29T15:56:26.719Z,58.19
2022-07-29T16:01:28.813Z,58.14
2022-07-29T16:06:31.011Z,57.78
2022-07-29T16:11:33.654Z,57.44
2022-07-29T16:34:11.250Z,54.90
2022-07-29T16:57:15.452Z,55.42
2022-07-29T17:02:17.793Z,55.33
2022-07-29T17:07:20.903Z,55.70
2022-07-29T17:29:39.547Z,56.86
2022-07-29T17:34:42.735Z,56.51
2022-07-29T17:39:45.073Z,56.41
2022-07-29T17:44:47.283Z,56.51
2022-07-29T17:49:49.977Z,56.54
2022-07-29T17:54:52.154Z,56.87
2022-07-29T17:59:54.307Z,57.20
2022-07-29T18:04:59.366Z,57.81
2022-07-29T18:10:08.196Z,57.79
2022-07-29T18:15:13.191Z,58.20
2022-07-29T18:20:24.144Z,58.60
2022-07-29T18:25:26.722Z,58.94
2022-07-29T18:30:30.303Z,59.12
2022-07-29T18:35:33.302Z,59.74
2022-07-29T18:40:35.559Z,59.49
2022-07-29T18:45:37.783Z,59.60
2022-07-29T18:50:42.351Z,60.04
2022-07-29T18:55:45.009Z,59.80
2022-07-29T19:00:47.167Z,59.97
2022-07-29T19:05:49.608Z,59.97
2022-07-29T19:10:51.671Z,60.39
2022-07-29T19:15:54.047Z,60.10
2022-07-29T19:20:56.407Z,60.21
2022-07-29T19:25:59.623Z,60.52
2022-07-29T19:31:02.363Z,60.72
2022-07-29T19:36:04.661Z,61.71
2022-07-29T19:41:07.235Z,62.37
2022-07-29T19:46:09.318Z,63.01
2022-07-29T19:51:11.377Z,62.96
2022-07-29T19:56:13.475Z,63.40
2022-07-29T20:01:17.567Z,63.52
2022-07-29T20:06:21.604Z,63.14
2022-07-29T20:11:32.453Z,63.14
2022-07-29T20:16:34.450Z,63.05
2022-07-29T20:21:42.389Z,62.31
2022-07-29T20:26:44.479Z,62.06
2022-07-29T20:31:56.148Z,61.85
2022-07-29T20:37:00.528Z,61.87
2022-07-29T20:42:02.778Z,61.39
2022-07-29T20:47:04.882Z,61.10
2022-07-29T20:52:07.115Z,61.26
2022-07-29T20:57:09.498Z,61.30
2022-07-29T21:02:11.675Z,61.73
2022-07-29T21:07:13.711Z,61.63
2022-07-29T21:12:15.671Z,62.25
2022-07-29T21:17:21.215Z,63.06
2022-07-29T21:22:24.665Z,63.35
2022-07-29T21:27:45.598Z,63.92
2022-07-29T21:32:50.938Z,64.04
2022-07-29T21:37:55.604Z,64.06
2022-07-29T21:42:57.904Z,64.05
2022-07-29T21:48:00.112Z,64.11
2022-07-29T21:53:02.283Z,64.59
2022-07-29T21:58:06.722Z,64.33
2022-07-29T22:03:09.031Z,64.17
2022-07-29T22:08:11.263Z,64.24
2022-07-29T22:13:21.549Z,63.92
2022-07-29T22:18:23.499Z,63.82
2022-07-29T22:23:25.609Z,63.89
2022-07-29T22:28:27.702Z,63.72
2022-07-29T22:33:29.669Z,63.51
2022-07-29T22:38:31.759Z,63.49
2022-07-29T22:43:39.665Z,63.52
2022-07-29T22:48:41.731Z,63.54
2022-07-29T22:53:48.328Z,63.62
2022-07-29T22:58:53.463Z,63.46
2022-07-29T23:03:55.631Z,63.50
2022-07-29T23:08:57.710Z,63.47
2022-07-29T23:13:59.713Z,63.31
2022-07-29T23:19:01.791Z,63.07
2022-07-29T23:24:04.171Z,63.24
2022-07-29T23:29:07.910Z,63.14
2022-07-29T23:34:13.128Z,63.13
2022-07-29T23:39:15.314Z,62.79
2022-07-29T23:44:17.296Z,62.79
2022-07-29T23:49:19.356Z,62.79
2022-07-29T23:54:21.571Z,62.62
2022-07-29T23:59:24.794Z,62.87
